sensor_id;sensor_type;location;lat;lon;timestamp;pressure;altitude;pressure_sealevel;temperature;humidity
32320;BME280;19080;51.750;5.888;2023-01-28T00:01:07;102721.63;;;4.34;100.00
32320;BME280;19080;51.750;5.888;2023-01-28T00:03:33;102690.81;;;4.20;100.00
32320;BME280;19080;51.750;5.888;2023-01-28T00:06:05;102625.84;;;3.81;100.00
32320;BME280;19080;51.750;5.888;2023-01-28T00:08:32;102631.78;;;3.78;100.00
32320;BME280;19080;51.750;5.888;2023-01-28T00:11:00;102704.06;;;4.21;100.00
32320;BME280;19080;51.750;5.888;2023-01-28T00:13:28;102626.31;;;3.75;100.00
32320;BME280;19080;51.750;5.888;2023-01-28T00:15:59;102722.78;;;4.26;100.00
32320;BME280;19080;51.750;5.888;2023-01-28T00:18:27;102703.53;;;4.14;100.00
32320;BME280;19080;51.750;5.888;2023-01-28T00:20:57;102741.63;;;4.32;100.00
32320;BME280;19080;51.750;5.888;2023-01-28T00:23:25;102702.72;;;4.15;100.00
32320;BME280;19080;51.750;5.888;2023-01-28T00:25:52;102632.50;;;3.76;100.00
32320;BME280;19080;51.750;5.888;2023-01-28T00:28:20;102633.41;;;3.76;100.00
32320;BME280;19080;51.750;5.888;2023-01-28T00:30:49;102613.13;;;3.62;100.00
32320;BME280;19080;51.750;5.888;2023-01-28T00:33:16;102619.28;;;3.63;100.00
32320;BME280;19080;51.750;5.888;2023-01-28T00:35:45;102665.59;;;3.85;100.00
32320;BME280;19080;51.750;5.888;2023-01-28T00:38:12;102741.19;;;4.26;100.00
32320;BME280;19080;51.750;5.888;2023-01-28T00:40:38;102706.31;;;4.04;100.00
32320;BME280;19080;51.750;5.888;2023-01-28T00:43:05;102724.53;;;4.14;100.00
32320;BME280;19080;51.750;5.888;2023-01-28T00:45:31;102652.47;;;3.74;100.00
32320;BME280;19080;51.750;5.888;2023-01-28T00:47:58;102754.13;;;4.23;100.00
32320;BME280;19080;51.750;5.888;2023-01-28T00:50:25;102673.38;;;3.72;100.00
32320;BME280;19080;51.750;5.888;2023-01-28T00:52:51;102772.06;;;4.17;100.00
32320;BME280;19080;51.750;5.888;2023-01-28T00:55:18;102759.50;;;4.13;100.00
32320;BME280;19080;51.750;5.888;2023-01-28T00:57:46;102764.19;;;4.17;100.00
32320;BME280;19080;51.750;5.888;2023-01-28T01:00:12;102758.72;;;4.14;100.00
32320;BME280;19080;51.750;5.888;2023-01-28T01:02:40;102661.09;;;3.59;100.00
32320;BME280;19080;51.750;5.888;2023-01-28T01:05:07;102705.78;;;3.84;100.00
32320;BME280;19080;51.750;5.888;2023-01-28T01:07:34;102747.19;;;4.12;100.00
32320;BME280;19080;51.750;5.888;2023-01-28T01:10:15;102708.06;;;3.91;100.00
32320;BME280;19080;51.750;5.888;2023-01-28T01:12:47;102731.34;;;3.99;100.00
32320;BME280;19080;51.750;5.888;2023-01-28T01:15:16;102717.19;;;3.97;100.00
32320;BME280;19080;51.750;5.888;2023-01-28T01:17:45;102633.13;;;3.48;100.00
32320;BME280;19080;51.750;5.888;2023-01-28T01:20:15;102636.69;;;3.49;100.00
32320;BME280;19080;51.750;5.888;2023-01-28T01:22:42;102731.22;;;3.97;100.00
32320;BME280;19080;51.750;5.888;2023-01-28T01:25:11;102650.13;;;3.53;100.00
32320;BME280;19080;51.750;5.888;2023-01-28T01:27:39;102705.78;;;3.84;100.00
32320;BME280;19080;51.750;5.888;2023-01-28T01:30:07;102743.78;;;4.01;100.00
32320;BME280;19080;51.750;5.888;2023-01-28T01:32:35;102759.19;;;4.08;100.00
32320;BME280;19080;51.750;5.888;2023-01-28T01:35:03;102700.31;;;3.81;100.00
32320;BME280;19080;51.750;5.888;2023-01-28T01:37:32;102660.16;;;3.59;100.00
32320;BME280;19080;51.750;5.888;2023-01-28T01:40:00;102755.63;;;4.08;100.00
32320;BME280;19080;51.750;5.888;2023-01-28T01:42:32;102713.66;;;3.84;100.00
32320;BME280;19080;51.750;5.888;2023-01-28T01:45:04;102758.06;;;4.05;100.00
32320;BME280;19080;51.750;5.888;2023-01-28T01:47:41;102754.84;;;4.09;100.00
32320;BME280;19080;51.750;5.888;2023-01-28T01:53:01;102739.00;;;3.96;100.00
32320;BME280;19080;51.750;5.888;2023-01-28T01:55:30;102747.09;;;3.99;100.00
32320;BME280;19080;51.750;5.888;2023-01-28T01:58:02;102719.28;;;3.77;100.00
32320;BME280;19080;51.750;5.888;2023-01-28T02:00:31;102652.03;;;3.43;100.00
32320;BME280;19080;51.750;5.888;2023-01-28T02:02:58;102736.50;;;3.85;100.00
32320;BME280;19080;51.750;5.888;2023-01-28T02:05:25;102634.34;;;3.29;100.00
32320;BME280;19080;51.750;5.888;2023-01-28T02:07:55;102723.72;;;3.78;100.00
32320;BME280;19080;51.750;5.888;2023-01-28T02:10:43;102594.34;;;3.08;100.00
32320;BME280;19080;51.750;5.888;2023-01-28T02:13:12;102710.94;;;3.71;100.00
32320;BME280;19080;51.750;5.888;2023-01-28T02:15:40;102644.50;;;3.36;100.00
32320;BME280;19080;51.750;5.888;2023-01-28T02:18:07;102643.34;;;3.32;100.00
32320;BME280;19080;51.750;5.888;2023-01-28T02:29:05;102708.78;;;3.77;100.00
32320;BME280;19080;51.750;5.888;2023-01-28T02:31:41;102628.75;;;3.36;100.00
32320;BME280;19080;51.750;5.888;2023-01-28T02:34:30;102735.81;;;3.88;100.00
32320;BME280;19080;51.750;5.888;2023-01-28T02:37:24;102721.09;;;3.78;100.00
32320;BME280;19080;51.750;5.888;2023-01-28T02:40:07;102720.41;;;3.81;100.00
32320;BME280;19080;51.750;5.888;2023-01-28T02:42:37;102724.75;;;3.80;100.00
32320;BME280;19080;51.750;5.888;2023-01-28T02:47:46;102747.81;;;3.84;100.00
32320;BME280;19080;51.750;5.888;2023-01-28T02:50:35;102642.91;;;3.26;100.00
32320;BME280;19080;51.750;5.888;2023-01-28T02:53:30;102753.28;;;3.87;100.00
32320;BME280;19080;51.750;5.888;2023-01-28T02:56:29;102757.41;;;3.84;100.00
32320;BME280;19080;51.750;5.888;2023-01-28T03:02:06;102757.97;;;3.80;100.00
32320;BME280;19080;51.750;5.888;2023-01-28T03:07:28;102713.03;;;3.52;100.00
32320;BME280;19080;51.750;5.888;2023-01-28T03:10:00;102776.16;;;3.77;100.00
32320;BME280;19080;51.750;5.888;2023-01-28T03:12:30;102680.34;;;3.23;100.00
32320;BME280;19080;51.750;5.888;2023-01-28T03:15:18;102722.22;;;3.45;100.00
32320;BME280;19080;51.750;5.888;2023-01-28T03:18:14;102764.28;;;3.70;100.00
32320;BME280;19080;51.750;5.888;2023-01-28T03:21:14;102717.53;;;3.41;100.00
32320;BME280;19080;51.750;5.888;2023-01-28T03:24:23;102762.44;;;3.69;100.00
32320;BME280;19080;51.750;5.888;2023-01-28T03:33:51;102743.06;;;3.55;100.00
32320;BME280;19080;51.750;5.888;2023-01-28T03:36:36;102749.00;;;3.53;100.00
32320;BME280;19080;51.750;5.888;2023-01-28T03:39:30;102716.84;;;3.32;100.00
32320;BME280;19080;51.750;5.888;2023-01-28T03:42:04;102763.84;;;3.52;100.00
32320;BME280;19080;51.750;5.888;2023-01-28T03:44:31;102656.38;;;2.96;100.00
32320;BME280;19080;51.750;5.888;2023-01-28T03:47:24;102717.06;;;3.23;100.00
32320;BME280;19080;51.750;5.888;2023-01-28T03:49:53;102653.06;;;2.86;100.00
32320;BME280;19080;51.750;5.888;2023-01-28T03:52:29;102766.13;;;3.48;100.00
32320;BME280;19080;51.750;5.888;2023-01-28T03:55:08;102659.34;;;2.88;100.00
32320;BME280;19080;51.750;5.888;2023-01-28T03:57:40;102746.06;;;3.37;100.00
32320;BME280;19080;51.750;5.888;2023-01-28T04:00:07;102705.78;;;3.13;100.00
32320;BME280;19080;51.750;5.888;2023-01-28T04:02:41;102742.19;;;3.32;100.00
32320;BME280;19080;51.750;5.888;2023-01-28T04:05:12;102762.28;;;3.43;100.00
32320;BME280;19080;51.750;5.888;2023-01-28T04:07:47;102749.94;;;3.30;100.00
32320;BME280;19080;51.750;5.888;2023-01-28T04:10:19;102776.16;;;3.53;100.00
32320;BME280;19080;51.750;5.888;2023-01-28T04:12:53;102778.91;;;3.55;100.00
32320;BME280;19080;51.750;5.888;2023-01-28T04:15:22;102762.50;;;3.46;100.00
32320;BME280;19080;51.750;5.888;2023-01-28T04:17:49;102746.75;;;3.34;100.00
32320;BME280;19080;51.750;5.888;2023-01-28T04:20:25;102774.09;;;3.49;100.00
32320;BME280;19080;51.750;5.888;2023-01-28T04:22:53;102747.66;;;3.35;100.00
32320;BME280;19080;51.750;5.888;2023-01-28T04:25:21;102775.25;;;3.53;100.00
32320;BME280;19080;51.750;5.888;2023-01-28T04:27:48;102679.78;;;3.04;100.00
32320;BME280;19080;51.750;5.888;2023-01-28T04:30:20;102755.41;;;3.45;100.00
32320;BME280;19080;51.750;5.888;2023-01-28T04:33:04;102671.78;;;2.91;100.00
32320;BME280;19080;51.750;5.888;2023-01-28T04:35:39;102776.63;;;3.48;100.00
32320;BME280;19080;51.750;5.888;2023-01-28T04:38:09;102770.25;;;3.44;100.00
32320;BME280;19080;51.750;5.888;2023-01-28T04:41:05;102730.53;;;3.28;100.00
32320;BME280;19080;51.750;5.888;2023-01-28T04:43:33;102657.19;;;2.83;100.00
32320;BME280;19080;51.750;5.888;2023-01-28T04:46:35;102679.53;;;2.89;100.00
32320;BME280;19080;51.750;5.888;2023-01-28T04:49:14;102783.28;;;3.43;100.00
32320;BME280;19080;51.750;5.888;2023-01-28T04:51:50;102692.53;;;2.88;100.00
32320;BME280;19080;51.750;5.888;2023-01-28T04:54:27;102742.63;;;3.14;100.00
32320;BME280;19080;51.750;5.888;2023-01-28T04:56:58;102685.09;;;2.82;100.00
32320;BME280;19080;51.750;5.888;2023-01-28T04:59:24;102717.28;;;3.03;100.00
32320;BME280;19080;51.750;5.888;2023-01-28T05:01:51;102663.88;;;2.68;100.00
32320;BME280;19080;51.750;5.888;2023-01-28T05:04:18;102676.91;;;2.78;100.00
32320;BME280;19080;51.750;5.888;2023-01-28T05:06:45;102755.75;;;3.14;100.00
32320;BME280;19080;51.750;5.888;2023-01-28T05:09:17;102779.25;;;3.24;100.00
32320;BME280;19080;51.750;5.888;2023-01-28T05:11:44;102659.75;;;2.59;100.00
32320;BME280;19080;51.750;5.888;2023-01-28T05:14:12;102676.75;;;2.65;100.00
32320;BME280;19080;51.750;5.888;2023-01-28T05:16:50;102762.00;;;3.05;100.00
32320;BME280;19080;51.750;5.888;2023-01-28T05:19:17;102732.91;;;2.90;100.00
32320;BME280;19080;51.750;5.888;2023-01-28T05:21:45;102759.72;;;3.09;100.00
32320;BME280;19080;51.750;5.888;2023-01-28T05:24:21;102682.56;;;2.60;100.00
32320;BME280;19080;51.750;5.888;2023-01-28T05:26:48;102755.38;;;2.98;100.00
32320;BME280;19080;51.750;5.888;2023-01-28T05:29:15;102784.84;;;3.17;100.00
32320;BME280;19080;51.750;5.888;2023-01-28T05:31:42;102754.34;;;2.96;100.00
32320;BME280;19080;51.750;5.888;2023-01-28T05:34:08;102771.94;;;3.09;100.00
32320;BME280;19080;51.750;5.888;2023-01-28T05:36:35;102759.72;;;2.98;100.00
32320;BME280;19080;51.750;5.888;2023-01-28T05:39:13;102774.22;;;3.04;100.00
32320;BME280;19080;51.750;5.888;2023-01-28T05:41:40;102672.97;;;2.49;100.00
32320;BME280;19080;51.750;5.888;2023-01-28T05:44:07;102742.13;;;2.85;100.00
32320;BME280;19080;51.750;5.888;2023-01-28T05:46:53;102708.09;;;2.63;100.00
32320;BME280;19080;51.750;5.888;2023-01-28T05:49:58;102758.78;;;2.97;100.00
32320;BME280;19080;51.750;5.888;2023-01-28T05:52:51;102682.75;;;2.52;100.00
32320;BME280;19080;51.750;5.888;2023-01-28T05:55:23;102746.09;;;2.80;100.00
32320;BME280;19080;51.750;5.888;2023-01-28T05:57:50;102775.69;;;3.01;100.00
32320;BME280;19080;51.750;5.888;2023-01-28T06:00:20;102683.66;;;2.41;100.00
32320;BME280;19080;51.750;5.888;2023-01-28T06:02:46;102788.69;;;2.99;100.00
32320;BME280;19080;51.750;5.888;2023-01-28T06:05:14;102795.03;;;2.91;100.00
32320;BME280;19080;51.750;5.888;2023-01-28T06:07:46;102765.03;;;2.76;100.00
32320;BME280;19080;51.750;5.888;2023-01-28T06:10:14;102815.16;;;3.02;100.00
32320;BME280;19080;51.750;5.888;2023-01-28T06:12:43;102714.97;;;2.39;100.00
32320;BME280;19080;51.750;5.888;2023-01-28T06:15:35;102779.72;;;2.74;100.00
32320;BME280;19080;51.750;5.888;2023-01-28T06:18:14;102787.03;;;2.78;100.00
32320;BME280;19080;51.750;5.888;2023-01-28T06:20:44;102775.59;;;2.66;100.00
32320;BME280;19080;51.750;5.888;2023-01-28T06:23:11;102792.84;;;2.74;100.00
32320;BME280;19080;51.750;5.888;2023-01-28T06:25:37;102712.19;;;2.26;100.00
32320;BME280;19080;51.750;5.888;2023-01-28T06:28:08;102815.56;;;2.85;100.00
32320;BME280;19080;51.750;5.888;2023-01-28T06:30:35;102718.94;;;2.34;100.00
32320;BME280;19080;51.750;5.888;2023-01-28T06:33:01;102718.72;;;2.31;100.00
32320;BME280;19080;51.750;5.888;2023-01-28T06:35:28;102816.59;;;2.87;100.00
32320;BME280;19080;51.750;5.888;2023-01-28T06:37:55;102770.78;;;2.60;100.00
32320;BME280;19080;51.750;5.888;2023-01-28T06:40:22;102786.19;;;2.67;100.00
32320;BME280;19080;51.750;5.888;2023-01-28T06:42:50;102716.63;;;2.27;100.00
32320;BME280;19080;51.750;5.888;2023-01-28T06:45:16;102702.16;;;2.20;100.00
32320;BME280;19080;51.750;5.888;2023-01-28T06:47:43;102803.78;;;2.80;100.00
32320;BME280;19080;51.750;5.888;2023-01-28T06:50:10;102714.50;;;2.33;100.00
32320;BME280;19080;51.750;5.888;2023-01-28T06:52:37;102814.53;;;2.83;100.00
32320;BME280;19080;51.750;5.888;2023-01-28T06:55:03;102690.81;;;2.10;100.00
32320;BME280;19080;51.750;5.888;2023-01-28T06:57:30;102761.16;;;2.49;100.00
32320;BME280;19080;51.750;5.888;2023-01-28T06:59:57;102775.09;;;2.59;100.00
32320;BME280;19080;51.750;5.888;2023-01-28T07:02:23;102758.91;;;2.53;100.00
32320;BME280;19080;51.750;5.888;2023-01-28T07:04:53;102801.38;;;2.71;100.00
32320;BME280;19080;51.750;5.888;2023-01-28T07:07:19;102719.13;;;2.25;100.00
32320;BME280;19080;51.750;5.888;2023-01-28T07:09:46;102717.97;;;2.22;100.00
32320;BME280;19080;51.750;5.888;2023-01-28T07:12:12;102802.03;;;2.69;100.00
32320;BME280;19080;51.750;5.888;2023-01-28T07:14:39;102712.03;;;2.13;100.00
32320;BME280;19080;51.750;5.888;2023-01-28T07:17:05;102695.94;;;2.08;100.00
32320;BME280;19080;51.750;5.888;2023-01-28T07:19:32;102751.44;;;2.36;100.00
32320;BME280;19080;51.750;5.888;2023-01-28T07:21:59;102738.38;;;2.26;100.00
32320;BME280;19080;51.750;5.888;2023-01-28T07:24:29;102747.16;;;2.26;100.00
32320;BME280;19080;51.750;5.888;2023-01-28T07:26:55;102857.28;;;2.82;100.00
32320;BME280;19080;51.750;5.888;2023-01-28T07:29:22;102810.81;;;2.69;100.00
32320;BME280;19080;51.750;5.888;2023-01-28T07:31:49;102780.50;;;2.39;100.00
32320;BME280;19080;51.750;5.888;2023-01-28T07:34:16;102817.38;;;2.52;100.00
32320;BME280;19080;51.750;5.888;2023-01-28T07:36:42;102769.28;;;2.30;100.00
32320;BME280;19080;51.750;5.888;2023-01-28T07:39:11;102847.66;;;2.71;100.00
32320;BME280;19080;51.750;5.888;2023-01-28T07:41:38;102753.69;;;2.10;100.00
32320;BME280;19080;51.750;5.888;2023-01-28T07:44:05;102863.75;;;2.75;100.00
32320;BME280;19080;51.750;5.888;2023-01-28T07:46:32;102777.22;;;2.20;100.00
32320;BME280;19080;51.750;5.888;2023-01-28T07:48:58;102817.66;;;2.45;100.00
32320;BME280;19080;51.750;5.888;2023-01-28T07:51:25;102852.78;;;2.69;100.00
32320;BME280;19080;51.750;5.888;2023-01-28T07:53:52;102771.41;;;2.24;100.00
32320;BME280;19080;51.750;5.888;2023-01-28T07:56:18;102859.72;;;2.69;100.00
32320;BME280;19080;51.750;5.888;2023-01-28T07:58:48;102863.63;;;2.74;100.00
32320;BME280;19080;51.750;5.888;2023-01-28T08:01:15;102869.91;;;2.76;100.00
32320;BME280;19080;51.750;5.888;2023-01-28T08:03:43;102878.25;;;2.82;100.00
32320;BME280;19080;51.750;5.888;2023-01-28T08:06:10;102761.72;;;2.23;100.00
32320;BME280;19080;51.750;5.888;2023-01-28T08:08:37;102853.75;;;2.81;100.00
32320;BME280;19080;51.750;5.888;2023-01-28T08:11:07;102868.72;;;2.94;100.00
32320;BME280;19080;51.750;5.888;2023-01-28T08:13:34;102792.25;;;2.44;100.00
32320;BME280;19080;51.750;5.888;2023-01-28T08:16:01;102836.25;;;2.70;100.00
32320;BME280;19080;51.750;5.888;2023-01-28T08:18:28;102793.78;;;2.52;100.00
32320;BME280;19080;51.750;5.888;2023-01-28T08:20:56;102796.63;;;2.55;100.00
32320;BME280;19080;51.750;5.888;2023-01-28T08:23:23;102887.38;;;3.09;100.00
32320;BME280;19080;51.750;5.888;2023-01-28T08:25:52;102899.38;;;3.17;100.00
32320;BME280;19080;51.750;5.888;2023-01-28T08:28:20;102815.88;;;2.78;100.00
32320;BME280;19080;51.750;5.888;2023-01-28T08:30:47;102730.34;;;2.35;100.00
32320;BME280;19080;51.750;5.888;2023-01-28T08:33:14;102807.66;;;2.73;100.00
32320;BME280;19080;51.750;5.888;2023-01-28T08:35:41;102890.94;;;3.21;100.00
32320;BME280;19080;51.750;5.888;2023-01-28T08:38:10;102832.25;;;2.97;100.00
32320;BME280;19080;51.750;5.888;2023-01-28T08:40:37;102924.34;;;3.45;100.00
32320;BME280;19080;51.750;5.888;2023-01-28T08:43:05;102871.78;;;3.22;100.00
32320;BME280;19080;51.750;5.888;2023-01-28T08:45:32;102820.47;;;2.92;100.00
32320;BME280;19080;51.750;5.888;2023-01-28T08:48:00;102819.56;;;2.91;100.00
32320;BME280;19080;51.750;5.888;2023-01-28T08:50:30;102883.19;;;3.22;100.00
32320;BME280;19080;51.750;5.888;2023-01-28T08:53:05;102925.47;;;3.49;100.00
32320;BME280;19080;51.750;5.888;2023-01-28T08:55:33;102890.94;;;3.21;100.00
32320;BME280;19080;51.750;5.888;2023-01-28T08:58:05;102914.84;;;3.36;100.00
32320;BME280;19080;51.750;5.888;2023-01-28T09:00:33;102847.53;;;3.03;100.00
32320;BME280;19080;51.750;5.888;2023-01-28T09:03:00;102941.44;;;3.52;100.00
32320;BME280;19080;51.750;5.888;2023-01-28T09:05:31;102925.34;;;3.47;100.00
32320;BME280;19080;51.750;5.888;2023-01-28T09:08:04;102852.59;;;3.11;100.00
32320;BME280;19080;51.750;5.888;2023-01-28T09:10:31;102951.31;;;3.66;100.00
32320;BME280;19080;51.750;5.888;2023-01-28T09:12:58;102939.88;;;3.66;100.00
32320;BME280;19080;51.750;5.888;2023-01-28T09:15:25;102921.59;;;3.55;100.00
32320;BME280;19080;51.750;5.888;2023-01-28T09:17:58;102880.00;;;3.26;100.00
32320;BME280;19080;51.750;5.888;2023-01-28T09:20:26;102852.59;;;3.11;100.00
32320;BME280;19080;51.750;5.888;2023-01-28T09:22:53;102891.22;;;3.36;100.00
32320;BME280;19080;51.750;5.888;2023-01-28T09:25:22;102898.06;;;3.34;100.00
32320;BME280;19080;51.750;5.888;2023-01-28T09:27:49;102930.28;;;3.54;100.00
32320;BME280;19080;51.750;5.888;2023-01-28T09:30:16;102927.28;;;3.50;100.00
32320;BME280;19080;51.750;5.888;2023-01-28T09:32:43;102848.69;;;3.06;100.00
32320;BME280;19080;51.750;5.888;2023-01-28T09:35:10;102951.44;;;3.68;100.00
32320;BME280;19080;51.750;5.888;2023-01-28T09:37:37;102870.16;;;3.12;100.00
32320;BME280;19080;51.750;5.888;2023-01-28T09:40:04;102845.69;;;2.90;100.00
32320;BME280;19080;51.750;5.888;2023-01-28T09:42:42;102874.13;;;3.07;100.00
32320;BME280;19080;51.750;5.888;2023-01-28T09:45:15;102899.41;;;3.29;100.00
32320;BME280;19080;51.750;5.888;2023-01-28T09:50:32;102976.78;;;3.67;100.00
32320;BME280;19080;51.750;5.888;2023-01-28T09:53:04;102884.56;;;3.17;100.00
32320;BME280;19080;51.750;5.888;2023-01-28T09:55:42;102963.97;;;3.60;100.00
32320;BME280;19080;51.750;5.888;2023-01-28T09:58:11;102867.84;;;3.05;100.00
32320;BME280;19080;51.750;5.888;2023-01-28T10:00:54;102877.25;;;3.13;100.00
32320;BME280;19080;51.750;5.888;2023-01-28T10:03:36;102880.34;;;3.19;100.00
32320;BME280;19080;51.750;5.888;2023-01-28T10:14:51;102997.94;;;3.80;100.00
32320;BME280;19080;51.750;5.888;2023-01-28T10:17:41;102997.13;;;3.81;100.00
32320;BME280;19080;51.750;5.888;2023-01-28T10:22:51;102994.03;;;3.75;100.00
32320;BME280;19080;51.750;5.888;2023-01-28T10:25:23;102988.78;;;3.75;100.00
32320;BME280;19080;51.750;5.888;2023-01-28T10:27:51;102953.00;;;3.54;100.00
32320;BME280;19080;51.750;5.888;2023-01-28T10:30:20;102975.97;;;3.68;100.00
32320;BME280;19080;51.750;5.888;2023-01-28T10:32:52;102999.44;;;3.88;100.00
32320;BME280;19080;51.750;5.888;2023-01-28T10:35:20;102944.69;;;3.71;100.00
32320;BME280;19080;51.750;5.888;2023-01-28T10:37:47;102975.47;;;3.96;100.00
32320;BME280;19080;51.750;5.888;2023-01-28T10:40:16;102880.03;;;3.38;100.00
32320;BME280;19080;51.750;5.888;2023-01-28T10:42:44;102982.66;;;3.98;100.00
32320;BME280;19080;51.750;5.888;2023-01-28T10:45:21;102980.63;;;4.06;100.00
32320;BME280;19080;51.750;5.888;2023-01-28T10:50:26;102979.81;;;4.07;100.00
32320;BME280;19080;51.750;5.888;2023-01-28T10:52:57;102988.16;;;4.13;100.00
32320;BME280;19080;51.750;5.888;2023-01-28T10:55:27;102934.00;;;3.91;100.00
32320;BME280;19080;51.750;5.888;2023-01-28T10:57:55;102935.38;;;4.10;100.00
32320;BME280;19080;51.750;5.888;2023-01-28T11:00:25;102971.47;;;4.36;100.00
32320;BME280;19080;51.750;5.888;2023-01-28T11:02:52;102964.28;;;4.33;100.00
32320;BME280;19080;51.750;5.888;2023-01-28T11:05:22;102879.84;;;3.93;100.00
32320;BME280;19080;51.750;5.888;2023-01-28T11:08:09;102902.34;;;4.25;100.00
32320;BME280;19080;51.750;5.888;2023-01-28T11:10:38;102918.63;;;4.56;100.00
32320;BME280;19080;51.750;5.888;2023-01-28T11:13:14;102908.28;;;4.82;100.00
32320;BME280;19080;51.750;5.888;2023-01-28T11:15:49;102904.25;;;5.12;100.00
32320;BME280;19080;51.750;5.888;2023-01-28T11:18:25;102940.81;;;5.46;100.00
32320;BME280;19080;51.750;5.888;2023-01-28T11:20:56;102883.00;;;5.22;100.00
32320;BME280;19080;51.750;5.888;2023-01-28T11:23:32;102869.28;;;5.40;100.00
32320;BME280;19080;51.750;5.888;2023-01-28T11:26:13;102863.94;;;5.51;100.00
32320;BME280;19080;51.750;5.888;2023-01-28T11:28:41;102884.34;;;5.80;100.00
32320;BME280;19080;51.750;5.888;2023-01-28T11:31:12;102897.78;;;5.97;100.00
32320;BME280;19080;51.750;5.888;2023-01-28T11:33:48;102907.81;;;6.02;100.00
32320;BME280;19080;51.750;5.888;2023-01-28T11:36:21;102875.63;;;5.81;100.00
32320;BME280;19080;51.750;5.888;2023-01-28T11:38:58;102907.41;;;6.09;100.00
32320;BME280;19080;51.750;5.888;2023-01-28T11:41:36;102905.69;;;6.10;99.95
32320;BME280;19080;51.750;5.888;2023-01-28T11:44:16;102811.56;;;5.69;100.00
32320;BME280;19080;51.750;5.888;2023-01-28T11:49:27;102885.00;;;6.16;100.00
32320;BME280;19080;51.750;5.888;2023-01-28T11:52:18;102864.69;;;6.28;100.00
32320;BME280;19080;51.750;5.888;2023-01-28T11:55:16;102735.78;;;5.92;99.12
32320;BME280;19080;51.750;5.888;2023-01-28T11:58:09;102833.78;;;8.14;91.50
32320;BME280;19080;51.750;5.888;2023-01-28T12:01:15;102815.16;;;10.12;65.21
32320;BME280;19080;51.750;5.888;2023-01-28T12:06:38;102815.50;;;12.19;54.88
32320;BME280;19080;51.750;5.888;2023-01-28T12:09:44;102782.81;;;13.41;51.08
32320;BME280;19080;51.750;5.888;2023-01-28T12:20:52;102814.47;;;15.95;41.29
32320;BME280;19080;51.750;5.888;2023-01-28T12:23:54;102743.19;;;14.37;41.15
32320;BME280;19080;51.750;5.888;2023-01-28T12:26:41;102820.81;;;14.70;41.12
32320;BME280;19080;51.750;5.888;2023-01-28T12:40:03;102856.94;;;10.16;51.52
32320;BME280;19080;51.750;5.888;2023-01-28T12:42:41;102834.03;;;9.83;52.88
32320;BME280;19080;51.750;5.888;2023-01-28T12:45:16;102827.56;;;9.26;53.35
32320;BME280;19080;51.750;5.888;2023-01-28T12:47:57;102861.84;;;8.74;55.19
32320;BME280;19080;51.750;5.888;2023-01-28T12:50:35;102858.25;;;8.10;58.27
32320;BME280;19080;51.750;5.888;2023-01-28T12:53:23;102855.09;;;8.32;62.02
32320;BME280;19080;51.750;5.888;2023-01-28T12:56:14;102842.06;;;10.02;58.36
32320;BME280;19080;51.750;5.888;2023-01-28T12:59:19;102804.66;;;11.50;51.32
32320;BME280;19080;51.750;5.888;2023-01-28T13:05:02;102842.44;;;12.04;49.43
32320;BME280;19080;51.750;5.888;2023-01-28T13:07:49;102750.88;;;12.69;46.79
32320;BME280;19080;51.750;5.888;2023-01-28T13:12:46;102828.75;;;15.28;42.44
32320;BME280;19080;51.750;5.888;2023-01-28T13:15:15;102751.13;;;15.26;40.43
32320;BME280;19080;51.750;5.888;2023-01-28T13:17:54;102744.28;;;14.73;41.06
32320;BME280;19080;51.750;5.888;2023-01-28T13:20:49;102800.81;;;14.28;41.85
32320;BME280;19080;51.750;5.888;2023-01-28T13:25:51;102739.19;;;14.51;40.56
32320;BME280;19080;51.750;5.888;2023-01-28T13:28:27;102824.34;;;14.69;40.87
32320;BME280;19080;51.750;5.888;2023-01-28T13:31:07;102741.72;;;14.76;41.42
32320;BME280;19080;51.750;5.888;2023-01-28T13:33:39;102783.72;;;16.56;38.73
32320;BME280;19080;51.750;5.888;2023-01-28T13:36:17;102804.84;;;17.25;36.79
32320;BME280;19080;51.750;5.888;2023-01-28T13:38:48;102776.63;;;17.00;36.23
32320;BME280;19080;51.750;5.888;2023-01-28T13:41:46;102726.88;;;15.20;38.13
32320;BME280;19080;51.750;5.888;2023-01-28T13:44:31;102718.34;;;13.81;39.90
32320;BME280;19080;51.750;5.888;2023-01-28T13:49:39;102766.97;;;12.26;43.57
32320;BME280;19080;51.750;5.888;2023-01-28T13:52:13;102758.03;;;11.58;45.46
32320;BME280;19080;51.750;5.888;2023-01-28T13:54:47;102756.78;;;11.29;46.75
32320;BME280;19080;51.750;5.888;2023-01-28T13:57:43;102744.16;;;11.24;47.74
32320;BME280;19080;51.750;5.888;2023-01-28T14:14:25;102779.91;;;9.97;51.28
32320;BME280;19080;51.750;5.888;2023-01-28T14:17:23;102684.66;;;9.84;50.44
32320;BME280;19080;51.750;5.888;2023-01-28T14:19:56;102769.38;;;9.81;51.03
32320;BME280;19080;51.750;5.888;2023-01-28T14:22:24;102697.91;;;8.95;53.31
32320;BME280;19080;51.750;5.888;2023-01-28T14:24:51;102735.78;;;9.99;52.17
32320;BME280;19080;51.750;5.888;2023-01-28T14:27:45;102797.75;;;9.30;52.53
32320;BME280;19080;51.750;5.888;2023-01-28T14:30:37;102804.13;;;7.89;56.58
32320;BME280;19080;51.750;5.888;2023-01-28T14:33:09;102737.19;;;6.56;63.70
32320;BME280;19080;51.750;5.888;2023-01-28T14:35:39;102775.88;;;6.14;74.39
32320;BME280;19080;51.750;5.888;2023-01-28T14:38:14;102805.50;;;5.83;84.80
32320;BME280;19080;51.750;5.888;2023-01-28T14:40:42;102745.50;;;5.27;91.59
32320;BME280;19080;51.750;5.888;2023-01-28T14:43:15;102816.56;;;6.45;92.90
32320;BME280;19080;51.750;5.888;2023-01-28T14:48:26;102811.56;;;8.74;68.23
32320;BME280;19080;51.750;5.888;2023-01-28T14:54:24;102812.94;;;8.04;70.87
32320;BME280;19080;51.750;5.888;2023-01-28T15:01:59;102698.72;;;9.63;58.84
32320;BME280;19080;51.750;5.888;2023-01-28T15:04:34;102686.91;;;9.94;56.17